sensor_id;sensor_type;location;lat;lon;timestamp;P1;durP1;ratioP1;P2;durP2;ratioP2
79631;SDS011;69108;41.120;16.874;2023-08-17T00:01:08;15.00;;;12.52;;
79631;SDS011;69108;41.120;16.874;2023-08-17T00:03:35;19.10;;;12.35;;
79631;SDS011;69108;41.120;16.874;2023-08-17T00:06:02;16.83;;;12.25;;
79631;SDS011;69108;41.120;16.874;2023-08-17T00:08:29;14.18;;;11.60;;
79631;SDS011;69108;41.120;16.874;2023-08-17T00:10:58;14.45;;;11.25;;
79631;SDS011;69108;41.120;16.874;2023-08-17T00:13:25;13.93;;;11.95;;
79631;SDS011;69108;41.120;16.874;2023-08-17T00:15:51;14.20;;;11.75;;
79631;SDS011;69108;41.120;16.874;2023-08-17T00:18:18;14.48;;;11.85;;
79631;SDS011;69108;41.120;16.874;2023-08-17T00:20:45;14.32;;;12.23;;
79631;SDS011;69108;41.120;16.874;2023-08-17T00:23:13;15.80;;;11.05;;
79631;SDS011;69108;41.120;16.874;2023-08-17T00:25:40;15.55;;;11.75;;
79631;SDS011;69108;41.120;16.874;2023-08-17T00:28:10;14.13;;;11.32;;
79631;SDS011;69108;41.120;16.874;2023-08-17T00:30:37;13.90;;;11.35;;
79631;SDS011;69108;41.120;16.874;2023-08-17T00:33:04;13.93;;;12.02;;
79631;SDS011;69108;41.120;16.874;2023-08-17T00:35:32;13.23;;;11.15;;
79631;SDS011;69108;41.120;16.874;2023-08-17T00:37:59;14.02;;;11.40;;
79631;SDS011;69108;41.120;16.874;2023-08-17T00:40:28;12.85;;;11.15;;
79631;SDS011;69108;41.120;16.874;2023-08-17T00:42:56;14.20;;;11.88;;
79631;SDS011;69108;41.120;16.874;2023-08-17T00:45:24;18.40;;;12.07;;
79631;SDS011;69108;41.120;16.874;2023-08-17T00:47:53;16.00;;;12.55;;
79631;SDS011;69108;41.120;16.874;2023-08-17T00:50:22;13.68;;;10.90;;
79631;SDS011;69108;41.120;16.874;2023-08-17T00:52:50;15.38;;;11.52;;
79631;SDS011;69108;41.120;16.874;2023-08-17T00:55:17;16.00;;;11.30;;
79631;SDS011;69108;41.120;16.874;2023-08-17T00:57:44;14.65;;;11.77;;
79631;SDS011;69108;41.120;16.874;2023-08-17T01:00:12;15.85;;;11.95;;
79631;SDS011;69108;41.120;16.874;2023-08-17T01:02:40;14.32;;;11.90;;
79631;SDS011;69108;41.120;16.874;2023-08-17T01:05:08;15.35;;;11.52;;
79631;SDS011;69108;41.120;16.874;2023-08-17T01:10:02;15.40;;;11.52;;
79631;SDS011;69108;41.120;16.874;2023-08-17T01:12:31;14.18;;;11.77;;
79631;SDS011;69108;41.120;16.874;2023-08-17T01:15:04;18.58;;;11.80;;
79631;SDS011;69108;41.120;16.874;2023-08-17T01:17:37;14.80;;;11.23;;
79631;SDS011;69108;41.120;16.874;2023-08-17T01:20:10;14.45;;;11.35;;
79631;SDS011;69108;41.120;16.874;2023-08-17T01:22:39;13.15;;;10.90;;
79631;SDS011;69108;41.120;16.874;2023-08-17T01:25:09;12.90;;;10.85;;
79631;SDS011;69108;41.120;16.874;2023-08-17T01:27:39;13.88;;;11.13;;
79631;SDS011;69108;41.120;16.874;2023-08-17T01:30:08;14.23;;;11.35;;
79631;SDS011;69108;41.120;16.874;2023-08-17T01:32:37;13.65;;;12.23;;
79631;SDS011;69108;41.120;16.874;2023-08-17T01:35:09;14.60;;;12.00;;
79631;SDS011;69108;41.120;16.874;2023-08-17T01:37:44;14.57;;;11.73;;
79631;SDS011;69108;41.120;16.874;2023-08-17T01:40:14;14.20;;;11.93;;
79631;SDS011;69108;41.120;16.874;2023-08-17T01:42:41;16.70;;;12.13;;
79631;SDS011;69108;41.120;16.874;2023-08-17T01:45:10;13.57;;;11.27;;
79631;SDS011;69108;41.120;16.874;2023-08-17T01:47:45;14.40;;;11.23;;
79631;SDS011;69108;41.120;16.874;2023-08-17T01:50:12;13.90;;;12.30;;
79631;SDS011;69108;41.120;16.874;2023-08-17T01:52:39;14.68;;;11.75;;
79631;SDS011;69108;41.120;16.874;2023-08-17T01:55:07;14.10;;;10.95;;
79631;SDS011;69108;41.120;16.874;2023-08-17T01:57:36;14.40;;;10.25;;
79631;SDS011;69108;41.120;16.874;2023-08-17T02:00:03;15.80;;;11.32;;
79631;SDS011;69108;41.120;16.874;2023-08-17T02:02:31;15.60;;;12.15;;
79631;SDS011;69108;41.120;16.874;2023-08-17T02:04:58;13.93;;;11.00;;
79631;SDS011;69108;41.120;16.874;2023-08-17T02:07:26;12.02;;;10.48;;
79631;SDS011;69108;41.120;16.874;2023-08-17T02:09:53;14.43;;;11.65;;
79631;SDS011;69108;41.120;16.874;2023-08-17T02:12:20;14.70;;;10.93;;
79631;SDS011;69108;41.120;16.874;2023-08-17T02:14:52;13.45;;;10.65;;
79631;SDS011;69108;41.120;16.874;2023-08-17T02:17:19;13.75;;;10.93;;
79631;SDS011;69108;41.120;16.874;2023-08-17T02:19:47;14.93;;;11.00;;
79631;SDS011;69108;41.120;16.874;2023-08-17T02:22:15;14.38;;;11.40;;
79631;SDS011;69108;41.120;16.874;2023-08-17T02:24:43;14.05;;;10.82;;
79631;SDS011;69108;41.120;16.874;2023-08-17T02:27:11;12.93;;;10.80;;
79631;SDS011;69108;41.120;16.874;2023-08-17T02:29:38;14.27;;;11.60;;
79631;SDS011;69108;41.120;16.874;2023-08-17T02:34:34;12.98;;;9.95;;
79631;SDS011;69108;41.120;16.874;2023-08-17T02:37:02;15.75;;;11.27;;
79631;SDS011;69108;41.120;16.874;2023-08-17T02:39:29;14.40;;;11.02;;
79631;SDS011;69108;41.120;16.874;2023-08-17T02:41:59;14.27;;;10.68;;
79631;SDS011;69108;41.120;16.874;2023-08-17T02:46:53;13.57;;;10.45;;
79631;SDS011;69108;41.120;16.874;2023-08-17T02:49:22;14.02;;;10.25;;
79631;SDS011;69108;41.120;16.874;2023-08-17T02:51:51;13.70;;;10.77;;
79631;SDS011;69108;41.120;16.874;2023-08-17T02:54:18;13.27;;;10.50;;
79631;SDS011;69108;41.120;16.874;2023-08-17T02:56:46;14.82;;;10.65;;
79631;SDS011;69108;41.120;16.874;2023-08-17T02:59:15;14.07;;;10.93;;
79631;SDS011;69108;41.120;16.874;2023-08-17T03:01:43;13.88;;;10.82;;
79631;SDS011;69108;41.120;16.874;2023-08-17T03:04:11;17.33;;;11.25;;
79631;SDS011;69108;41.120;16.874;2023-08-17T03:06:40;12.30;;;10.25;;
79631;SDS011;69108;41.120;16.874;2023-08-17T03:09:06;14.00;;;10.25;;
79631;SDS011;69108;41.120;16.874;2023-08-17T03:11:36;13.93;;;10.38;;
79631;SDS011;69108;41.120;16.874;2023-08-17T03:14:04;14.75;;;11.00;;
79631;SDS011;69108;41.120;16.874;2023-08-17T03:16:31;13.93;;;9.70;;
79631;SDS011;69108;41.120;16.874;2023-08-17T03:18:58;16.25;;;10.73;;
79631;SDS011;69108;41.120;16.874;2023-08-17T03:21:27;13.07;;;10.35;;
79631;SDS011;69108;41.120;16.874;2023-08-17T03:23:55;11.60;;;9.55;;
79631;SDS011;69108;41.120;16.874;2023-08-17T03:26:22;13.18;;;10.18;;
79631;SDS011;69108;41.120;16.874;2023-08-17T03:28:52;13.20;;;9.88;;
79631;SDS011;69108;41.120;16.874;2023-08-17T03:31:20;13.65;;;10.05;;
79631;SDS011;69108;41.120;16.874;2023-08-17T03:33:48;13.45;;;10.32;;
79631;SDS011;69108;41.120;16.874;2023-08-17T03:36:15;12.57;;;10.02;;
79631;SDS011;69108;41.120;16.874;2023-08-17T03:38:43;11.55;;;8.93;;
79631;SDS011;69108;41.120;16.874;2023-08-17T03:41:12;13.52;;;9.50;;
79631;SDS011;69108;41.120;16.874;2023-08-17T03:43:40;12.52;;;9.55;;
79631;SDS011;69108;41.120;16.874;2023-08-17T03:46:07;13.18;;;9.80;;
79631;SDS011;69108;41.120;16.874;2023-08-17T03:48:34;11.93;;;9.25;;
79631;SDS011;69108;41.120;16.874;2023-08-17T03:51:01;13.43;;;8.73;;
79631;SDS011;69108;41.120;16.874;2023-08-17T03:53:29;12.30;;;8.85;;
79631;SDS011;69108;41.120;16.874;2023-08-17T03:55:56;12.60;;;9.13;;
79631;SDS011;69108;41.120;16.874;2023-08-17T03:58:25;10.85;;;9.15;;
79631;SDS011;69108;41.120;16.874;2023-08-17T04:00:57;12.88;;;8.88;;
79631;SDS011;69108;41.120;16.874;2023-08-17T04:03:26;10.32;;;8.80;;
79631;SDS011;69108;41.120;16.874;2023-08-17T04:05:52;12.00;;;9.25;;
79631;SDS011;69108;41.120;16.874;2023-08-17T04:08:21;10.38;;;8.70;;
79631;SDS011;69108;41.120;16.874;2023-08-17T04:10:51;12.32;;;8.65;;
79631;SDS011;69108;41.120;16.874;2023-08-17T04:13:20;12.60;;;8.55;;
79631;SDS011;69108;41.120;16.874;2023-08-17T04:15:54;12.52;;;8.68;;
79631;SDS011;69108;41.120;16.874;2023-08-17T04:18:23;12.48;;;9.00;;
79631;SDS011;69108;41.120;16.874;2023-08-17T04:20:50;12.80;;;8.63;;
79631;SDS011;69108;41.120;16.874;2023-08-17T04:23:18;14.32;;;8.85;;
79631;SDS011;69108;41.120;16.874;2023-08-17T04:25:47;10.68;;;8.98;;
79631;SDS011;69108;41.120;16.874;2023-08-17T04:28:16;14.13;;;9.80;;
79631;SDS011;69108;41.120;16.874;2023-08-17T04:30:45;13.43;;;8.98;;
79631;SDS011;69108;41.120;16.874;2023-08-17T04:33:24;10.93;;;8.65;;
79631;SDS011;69108;41.120;16.874;2023-08-17T04:35:51;11.57;;;8.82;;
79631;SDS011;69108;41.120;16.874;2023-08-17T04:40:46;12.93;;;9.02;;
79631;SDS011;69108;41.120;16.874;2023-08-17T04:45:40;15.60;;;10.48;;
79631;SDS011;69108;41.120;16.874;2023-08-17T04:48:10;11.82;;;9.43;;
79631;SDS011;69108;41.120;16.874;2023-08-17T04:50:40;14.23;;;10.02;;
79631;SDS011;69108;41.120;16.874;2023-08-17T04:53:09;16.73;;;10.45;;
79631;SDS011;69108;41.120;16.874;2023-08-17T04:55:38;19.00;;;10.75;;
79631;SDS011;69108;41.120;16.874;2023-08-17T04:58:06;13.57;;;10.63;;
79631;SDS011;69108;41.120;16.874;2023-08-17T05:00:37;15.30;;;11.30;;
79631;SDS011;69108;41.120;16.874;2023-08-17T05:03:08;15.80;;;11.45;;
79631;SDS011;69108;41.120;16.874;2023-08-17T05:05:35;13.70;;;11.40;;
79631;SDS011;69108;41.120;16.874;2023-08-17T05:08:04;13.90;;;10.77;;
79631;SDS011;69108;41.120;16.874;2023-08-17T05:10:32;16.00;;;11.38;;
79631;SDS011;69108;41.120;16.874;2023-08-17T05:13:01;18.08;;;11.82;;
79631;SDS011;69108;41.120;16.874;2023-08-17T05:15:31;19.77;;;12.98;;
79631;SDS011;69108;41.120;16.874;2023-08-17T05:18:00;15.40;;;11.55;;
79631;SDS011;69108;41.120;16.874;2023-08-17T05:20:27;17.08;;;11.82;;
79631;SDS011;69108;41.120;16.874;2023-08-17T05:22:56;14.57;;;11.43;;
79631;SDS011;69108;41.120;16.874;2023-08-17T05:25:25;15.20;;;11.73;;
79631;SDS011;69108;41.120;16.874;2023-08-17T05:27:53;17.58;;;11.82;;
79631;SDS011;69108;41.120;16.874;2023-08-17T05:30:19;13.88;;;11.20;;
79631;SDS011;69108;41.120;16.874;2023-08-17T05:32:46;20.88;;;11.88;;
79631;SDS011;69108;41.120;16.874;2023-08-17T05:35:13;14.88;;;10.77;;
79631;SDS011;69108;41.120;16.874;2023-08-17T05:37:40;14.75;;;10.80;;
79631;SDS011;69108;41.120;16.874;2023-08-17T05:40:07;16.60;;;12.45;;
79631;SDS011;69108;41.120;16.874;2023-08-17T05:42:37;15.90;;;11.65;;
79631;SDS011;69108;41.120;16.874;2023-08-17T05:45:05;14.95;;;11.40;;
79631;SDS011;69108;41.120;16.874;2023-08-17T05:47:32;16.95;;;10.63;;
79631;SDS011;69108;41.120;16.874;2023-08-17T05:50:00;14.00;;;10.85;;
79631;SDS011;69108;41.120;16.874;2023-08-17T05:52:27;12.25;;;10.35;;
79631;SDS011;69108;41.120;16.874;2023-08-17T05:54:54;14.52;;;10.10;;
79631;SDS011;69108;41.120;16.874;2023-08-17T05:57:22;13.95;;;10.63;;
79631;SDS011;69108;41.120;16.874;2023-08-17T05:59:50;12.85;;;9.30;;
79631;SDS011;69108;41.120;16.874;2023-08-17T06:02:17;17.10;;;10.68;;
79631;SDS011;69108;41.120;16.874;2023-08-17T06:04:44;16.60;;;10.63;;
79631;SDS011;69108;41.120;16.874;2023-08-17T06:07:11;14.55;;;10.40;;
79631;SDS011;69108;41.120;16.874;2023-08-17T06:09:38;11.73;;;9.27;;
79631;SDS011;69108;41.120;16.874;2023-08-17T06:12:05;15.50;;;10.48;;
79631;SDS011;69108;41.120;16.874;2023-08-17T06:14:32;15.38;;;10.20;;
79631;SDS011;69108;41.120;16.874;2023-08-17T06:17:01;11.63;;;8.93;;
79631;SDS011;69108;41.120;16.874;2023-08-17T06:19:28;11.98;;;8.88;;
79631;SDS011;69108;41.120;16.874;2023-08-17T06:21:55;13.73;;;10.40;;
79631;SDS011;69108;41.120;16.874;2023-08-17T06:24:23;19.45;;;13.63;;
79631;SDS011;69108;41.120;16.874;2023-08-17T06:26:50;14.60;;;10.02;;
79631;SDS011;69108;41.120;16.874;2023-08-17T06:29:17;11.48;;;8.93;;
79631;SDS011;69108;41.120;16.874;2023-08-17T06:34:13;10.93;;;8.35;;
79631;SDS011;69108;41.120;16.874;2023-08-17T06:36:40;12.02;;;8.77;;
79631;SDS011;69108;41.120;16.874;2023-08-17T06:39:07;16.63;;;9.20;;
79631;SDS011;69108;41.120;16.874;2023-08-17T06:41:34;12.70;;;9.15;;
79631;SDS011;69108;41.120;16.874;2023-08-17T06:44:01;16.08;;;9.23;;
79631;SDS011;69108;41.120;16.874;2023-08-17T06:46:28;14.60;;;10.02;;
79631;SDS011;69108;41.120;16.874;2023-08-17T06:48:55;16.17;;;9.27;;
79631;SDS011;69108;41.120;16.874;2023-08-17T06:51:24;12.27;;;9.18;;
79631;SDS011;69108;41.120;16.874;2023-08-17T06:53:51;13.45;;;9.95;;
79631;SDS011;69108;41.120;16.874;2023-08-17T06:56:18;14.70;;;9.35;;
79631;SDS011;69108;41.120;16.874;2023-08-17T06:58:44;13.20;;;9.35;;
79631;SDS011;69108;41.120;16.874;2023-08-17T07:01:12;12.35;;;9.25;;
79631;SDS011;69108;41.120;16.874;2023-08-17T07:03:39;13.23;;;9.10;;
79631;SDS011;69108;41.120;16.874;2023-08-17T07:06:06;11.13;;;8.98;;
79631;SDS011;69108;41.120;16.874;2023-08-17T07:08:34;13.68;;;9.98;;
79631;SDS011;69108;41.120;16.874;2023-08-17T07:11:01;14.57;;;9.35;;
79631;SDS011;69108;41.120;16.874;2023-08-17T07:13:30;11.85;;;9.27;;
79631;SDS011;69108;41.120;16.874;2023-08-17T07:15:57;12.85;;;9.75;;
79631;SDS011;69108;41.120;16.874;2023-08-17T07:18:24;14.10;;;9.82;;
79631;SDS011;69108;41.120;16.874;2023-08-17T07:20:54;11.77;;;9.77;;
79631;SDS011;69108;41.120;16.874;2023-08-17T07:23:21;13.90;;;9.57;;
79631;SDS011;69108;41.120;16.874;2023-08-17T07:25:49;15.25;;;8.82;;
79631;SDS011;69108;41.120;16.874;2023-08-17T07:28:16;13.07;;;9.57;;
79631;SDS011;69108;41.120;16.874;2023-08-17T07:30:44;14.73;;;9.70;;
79631;SDS011;69108;41.120;16.874;2023-08-17T07:33:11;11.05;;;8.75;;
79631;SDS011;69108;41.120;16.874;2023-08-17T07:35:38;12.73;;;9.20;;
79631;SDS011;69108;41.120;16.874;2023-08-17T07:38:05;13.38;;;8.77;;
79631;SDS011;69108;41.120;16.874;2023-08-17T07:40:31;11.38;;;8.75;;
79631;SDS011;69108;41.120;16.874;2023-08-17T07:43:00;12.80;;;8.77;;
79631;SDS011;69108;41.120;16.874;2023-08-17T07:45:27;12.57;;;8.23;;
79631;SDS011;69108;41.120;16.874;2023-08-17T07:47:54;12.73;;;8.55;;
79631;SDS011;69108;41.120;16.874;2023-08-17T07:50:21;11.70;;;9.38;;
79631;SDS011;69108;41.120;16.874;2023-08-17T07:52:47;13.15;;;8.45;;
79631;SDS011;69108;41.120;16.874;2023-08-17T07:55:16;14.90;;;8.07;;
79631;SDS011;69108;41.120;16.874;2023-08-17T07:57:45;14.10;;;8.57;;
79631;SDS011;69108;41.120;16.874;2023-08-17T08:02:41;15.52;;;9.13;;
79631;SDS011;69108;41.120;16.874;2023-08-17T08:05:09;14.65;;;8.43;;
79631;SDS011;69108;41.120;16.874;2023-08-17T08:07:39;14.70;;;8.50;;
79631;SDS011;69108;41.120;16.874;2023-08-17T08:12:33;12.35;;;8.15;;
79631;SDS011;69108;41.120;16.874;2023-08-17T08:15:01;12.93;;;8.88;;
79631;SDS011;69108;41.120;16.874;2023-08-17T08:17:31;12.90;;;7.70;;
79631;SDS011;69108;41.120;16.874;2023-08-17T08:19:58;10.30;;;8.10;;
79631;SDS011;69108;41.120;16.874;2023-08-17T08:22:24;14.45;;;8.88;;
79631;SDS011;69108;41.120;16.874;2023-08-17T08:27:18;9.82;;;7.95;;
79631;SDS011;69108;41.120;16.874;2023-08-17T08:32:13;11.18;;;8.82;;
79631;SDS011;69108;41.120;16.874;2023-08-17T08:34:41;13.02;;;8.52;;
79631;SDS011;69108;41.120;16.874;2023-08-17T08:37:08;10.10;;;7.85;;
79631;SDS011;69108;41.120;16.874;2023-08-17T08:39:47;11.63;;;7.97;;
79631;SDS011;69108;41.120;16.874;2023-08-17T08:42:15;12.27;;;7.55;;
79631;SDS011;69108;41.120;16.874;2023-08-17T08:44:42;12.07;;;7.28;;
79631;SDS011;69108;41.120;16.874;2023-08-17T08:47:09;9.98;;;7.57;;
79631;SDS011;69108;41.120;16.874;2023-08-17T08:49:37;8.77;;;7.03;;
79631;SDS011;69108;41.120;16.874;2023-08-17T08:52:08;10.10;;;7.07;;
79631;SDS011;69108;41.120;16.874;2023-08-17T08:54:39;10.85;;;7.32;;
79631;SDS011;69108;41.120;16.874;2023-08-17T08:57:08;11.57;;;7.60;;
79631;SDS011;69108;41.120;16.874;2023-08-17T08:59:39;11.20;;;7.65;;
79631;SDS011;69108;41.120;16.874;2023-08-17T09:02:10;11.05;;;8.57;;
79631;SDS011;69108;41.120;16.874;2023-08-17T09:04:39;14.80;;;8.35;;
79631;SDS011;69108;41.120;16.874;2023-08-17T09:07:07;12.35;;;8.10;;
79631;SDS011;69108;41.120;16.874;2023-08-17T09:09:35;9.20;;;7.50;;
79631;SDS011;69108;41.120;16.874;2023-08-17T09:12:03;10.35;;;7.32;;
79631;SDS011;69108;41.120;16.874;2023-08-17T09:14:31;11.30;;;7.05;;
79631;SDS011;69108;41.120;16.874;2023-08-17T09:16:58;10.02;;;7.82;;
79631;SDS011;69108;41.120;16.874;2023-08-17T09:19:25;12.13;;;8.18;;
79631;SDS011;69108;41.120;16.874;2023-08-17T09:21:53;8.73;;;6.50;;
79631;SDS011;69108;41.120;16.874;2023-08-17T09:24:21;10.82;;;6.97;;
79631;SDS011;69108;41.120;16.874;2023-08-17T09:26:48;9.60;;;7.10;;
79631;SDS011;69108;41.120;16.874;2023-08-17T09:29:17;10.07;;;7.85;;
79631;SDS011;69108;41.120;16.874;2023-08-17T09:31:45;10.13;;;6.97;;
79631;SDS011;69108;41.120;16.874;2023-08-17T09:34:12;9.65;;;6.43;;
79631;SDS011;69108;41.120;16.874;2023-08-17T09:36:41;10.55;;;6.07;;
79631;SDS011;69108;41.120;16.874;2023-08-17T09:39:07;9.60;;;6.63;;
79631;SDS011;69108;41.120;16.874;2023-08-17T09:41:39;7.43;;;6.40;;
79631;SDS011;69108;41.120;16.874;2023-08-17T09:44:07;8.77;;;6.97;;
79631;SDS011;69108;41.120;16.874;2023-08-17T09:46:34;10.32;;;7.05;;
79631;SDS011;69108;41.120;16.874;2023-08-17T09:49:02;9.20;;;6.82;;
79631;SDS011;69108;41.120;16.874;2023-08-17T09:51:30;8.30;;;7.05;;
79631;SDS011;69108;41.120;16.874;2023-08-17T09:53:57;10.98;;;7.60;;
79631;SDS011;69108;41.120;16.874;2023-08-17T09:56:24;16.80;;;11.95;;
79631;SDS011;69108;41.120;16.874;2023-08-17T09:58:54;13.25;;;10.88;;
79631;SDS011;69108;41.120;16.874;2023-08-17T10:01:21;12.93;;;10.98;;
79631;SDS011;69108;41.120;16.874;2023-08-17T10:03:48;18.35;;;15.85;;
79631;SDS011;69108;41.120;16.874;2023-08-17T10:06:17;24.35;;;21.75;;
79631;SDS011;69108;41.120;16.874;2023-08-17T10:08:47;16.73;;;15.02;;
79631;SDS011;69108;41.120;16.874;2023-08-17T10:11:16;17.80;;;16.08;;
79631;SDS011;69108;41.120;16.874;2023-08-17T10:13:46;15.55;;;13.00;;
79631;SDS011;69108;41.120;16.874;2023-08-17T10:16:19;12.07;;;7.00;;
79631;SDS011;69108;41.120;16.874;2023-08-17T10:18:50;11.25;;;7.05;;
79631;SDS011;69108;41.120;16.874;2023-08-17T10:21:21;11.73;;;7.45;;
79631;SDS011;69108;41.120;16.874;2023-08-17T10:23:50;11.38;;;7.93;;
79631;SDS011;69108;41.120;16.874;2023-08-17T10:26:17;13.07;;;8.15;;
79631;SDS011;69108;41.120;16.874;2023-08-17T10:28:44;9.80;;;7.38;;
79631;SDS011;69108;41.120;16.874;2023-08-17T10:31:12;10.10;;;7.60;;
79631;SDS011;69108;41.120;16.874;2023-08-17T10:33:41;9.60;;;7.30;;
79631;SDS011;69108;41.120;16.874;2023-08-17T10:36:11;12.65;;;7.50;;
79631;SDS011;69108;41.120;16.874;2023-08-17T10:38:38;10.77;;;7.10;;
79631;SDS011;69108;41.120;16.874;2023-08-17T10:41:09;9.32;;;7.70;;
79631;SDS011;69108;41.120;16.874;2023-08-17T10:43:55;10.45;;;7.40;;
79631;SDS011;69108;41.120;16.874;2023-08-17T10:46:31;10.32;;;7.18;;
79631;SDS011;69108;41.120;16.874;2023-08-17T10:49:02;11.32;;;7.65;;
79631;SDS011;69108;41.120;16.874;2023-08-17T10:51:30;11.35;;;8.15;;
79631;SDS011;69108;41.120;16.874;2023-08-17T10:53:58;10.27;;;8.18;;
79631;SDS011;69108;41.120;16.874;2023-08-17T10:56:26;12.68;;;8.82;;
79631;SDS011;69108;41.120;16.874;2023-08-17T10:58:53;14.50;;;9.38;;
79631;SDS011;69108;41.120;16.874;2023-08-17T11:01:30;12.88;;;9.65;;
79631;SDS011;69108;41.120;16.874;2023-08-17T11:06:52;15.13;;;9.50;;
79631;SDS011;69108;41.120;16.874;2023-08-17T11:09:27;13.57;;;10.20;;
79631;SDS011;69108;41.120;16.874;2023-08-17T11:11:54;12.13;;;9.45;;
79631;SDS011;69108;41.120;16.874;2023-08-17T11:14:21;13.57;;;10.75;;
79631;SDS011;69108;41.120;16.874;2023-08-17T11:16:48;12.25;;;9.45;;
79631;SDS011;69108;41.120;16.874;2023-08-17T11:19:17;12.35;;;9.60;;
79631;SDS011;69108;41.120;16.874;2023-08-17T11:21:45;14.10;;;9.85;;
79631;SDS011;69108;41.120;16.874;2023-08-17T11:24:13;13.15;;;10.15;;
79631;SDS011;69108;41.120;16.874;2023-08-17T11:26:40;14.68;;;10.45;;
79631;SDS011;69108;41.120;16.874;2023-08-17T11:29:08;13.88;;;10.85;;
79631;SDS011;69108;41.120;16.874;2023-08-17T11:34:01;13.10;;;10.00;;
79631;SDS011;69108;41.120;16.874;2023-08-17T11:38:57;12.55;;;10.38;;
79631;SDS011;69108;41.120;16.874;2023-08-17T11:41:24;12.15;;;10.15;;
79631;SDS011;69108;41.120;16.874;2023-08-17T11:43:51;11.88;;;10.10;;
79631;SDS011;69108;41.120;16.874;2023-08-17T11:46:20;13.32;;;9.77;;
79631;SDS011;69108;41.120;16.874;2023-08-17T11:48:48;14.02;;;10.98;;
79631;SDS011;69108;41.120;16.874;2023-08-17T11:51:19;15.85;;;10.63;;
79631;SDS011;69108;41.120;16.874;2023-08-17T11:53:58;14.27;;;10.55;;
79631;SDS011;69108;41.120;16.874;2023-08-17T11:56:28;15.70;;;10.52;;
79631;SDS011;69108;41.120;16.874;2023-08-17T11:58:55;14.50;;;10.50;;
79631;SDS011;69108;41.120;16.874;2023-08-17T12:01:23;16.50;;;10.98;;
79631;SDS011;69108;41.120;16.874;2023-08-17T12:03:51;15.25;;;10.93;;
79631;SDS011;69108;41.120;16.874;2023-08-17T12:06:18;14.85;;;10.32;;
79631;SDS011;69108;41.120;16.874;2023-08-17T12:11:13;14.45;;;11.13;;
79631;SDS011;69108;41.120;16.874;2023-08-17T12:13:48;15.38;;;11.27;;
79631;SDS011;69108;41.120;16.874;2023-08-17T12:16:16;14.70;;;11.65;;
79631;SDS011;69108;41.120;16.874;2023-08-17T12:18:43;14.30;;;11.05;;
79631;SDS011;69108;41.120;16.874;2023-08-17T12:21:10;18.55;;;11.63;;
79631;SDS011;69108;41.120;16.874;2023-08-17T12:23:37;17.88;;;11.75;;
79631;SDS011;69108;41.120;16.874;2023-08-17T12:26:04;15.98;;;11.25;;
79631;SDS011;69108;41.120;16.874;2023-08-17T12:28:34;14.13;;;11.95;;
79631;SDS011;69108;41.120;16.874;2023-08-17T12:31:02;14.60;;;11.60;;
79631;SDS011;69108;41.120;16.874;2023-08-17T12:33:29;12.50;;;11.20;;
79631;SDS011;69108;41.120;16.874;2023-08-17T12:35:56;14.32;;;10.13;;
79631;SDS011;69108;41.120;16.874;2023-08-17T12:38:24;14.65;;;10.10;;
79631;SDS011;69108;41.120;16.874;2023-08-17T12:40:51;15.63;;;9.93;;
79631;SDS011;69108;41.120;16.874;2023-08-17T12:43:18;13.25;;;10.25;;
79631;SDS011;69108;41.120;16.874;2023-08-17T12:45:46;12.85;;;10.70;;
79631;SDS011;69108;41.120;16.874;2023-08-17T12:48:13;17.17;;;10.18;;
79631;SDS011;69108;41.120;16.874;2023-08-17T12:53:07;12.40;;;9.52;;
79631;SDS011;69108;41.120;16.874;2023-08-17T12:55:33;12.85;;;9.15;;
79631;SDS011;69108;41.120;16.874;2023-08-17T13:00:28;16.60;;;9.13;;
79631;SDS011;69108;41.120;16.874;2023-08-17T13:02:56;13.70;;;8.65;;
79631;SDS011;69108;41.120;16.874;2023-08-17T13:05:23;12.73;;;8.75;;
79631;SDS011;69108;41.120;16.874;2023-08-17T13:07:50;10.48;;;8.38;;
79631;SDS011;69108;41.120;16.874;2023-08-17T13:10:16;12.65;;;7.97;;
79631;SDS011;69108;41.120;16.874;2023-08-17T13:15:12;13.57;;;8.63;;
79631;SDS011;69108;41.120;16.874;2023-08-17T13:17:39;17.23;;;8.75;;
79631;SDS011;69108;41.120;16.874;2023-08-17T13:20:08;14.65;;;8.77;;
79631;SDS011;69108;41.120;16.874;2023-08-17T13:22:36;11.43;;;8.98;;
79631;SDS011;69108;41.120;16.874;2023-08-17T13:25:03;12.95;;;9.40;;
79631;SDS011;69108;41.120;16.874;2023-08-17T13:27:31;16.40;;;8.20;;
79631;SDS011;69108;41.120;16.874;2023-08-17T13:29:58;15.38;;;9.48;;
79631;SDS011;69108;41.120;16.874;2023-08-17T13:32:26;15.50;;;8.90;;
79631;SDS011;69108;41.120;16.874;2023-08-17T13:34:53;13.52;;;8.18;;
79631;SDS011;69108;41.120;16.874;2023-08-17T13:37:21;20.63;;;9.63;;
79631;SDS011;69108;41.120;16.874;2023-08-17T13:39:48;12.77;;;8.48;;
79631;SDS011;69108;41.120;16.874;2023-08-17T13:42:15;14.95;;;9.18;;
79631;SDS011;69108;41.120;16.874;2023-08-17T13:44:43;16.50;;;8.68;;
79631;SDS011;69108;41.120;16.874;2023-08-17T13:47:10;17.13;;;9.35;;
79631;SDS011;69108;41.120;16.874;2023-08-17T13:49:37;18.67;;;9.77;;
79631;SDS011;69108;41.120;16.874;2023-08-17T13:54:32;14.60;;;9.65;;
79631;SDS011;69108;41.120;16.874;2023-08-17T13:56:59;12.02;;;9.60;;
79631;SDS011;69108;41.120;16.874;2023-08-17T13:59:26;12.63;;;9.05;;
79631;SDS011;69108;41.120;16.874;2023-08-17T14:01:55;13.27;;;9.05;;
79631;SDS011;69108;41.120;16.874;2023-08-17T14:04:22;13.73;;;9.65;;
79631;SDS011;69108;41.120;16.874;2023-08-17T14:06:50;13.30;;;8.18;;
79631;SDS011;69108;41.120;16.874;2023-08-17T14:11:45;13.90;;;9.73;;
79631;SDS011;69108;41.120;16.874;2023-08-17T14:14:12;17.55;;;11.10;;
79631;SDS011;69108;41.120;16.874;2023-08-17T14:16:39;15.23;;;10.55;;
79631;SDS011;69108;41.120;16.874;2023-08-17T14:19:06;17.63;;;10.40;;
79631;SDS011;69108;41.120;16.874;2023-08-17T14:24:00;17.02;;;10.98;;
79631;SDS011;69108;41.120;16.874;2023-08-17T14:26:27;16.85;;;11.30;;
79631;SDS011;69108;41.120;16.874;2023-08-17T14:31:22;15.73;;;10.98;;
79631;SDS011;69108;41.120;16.874;2023-08-17T14:33:50;14.05;;;11.60;;
79631;SDS011;69108;41.120;16.874;2023-08-17T14:36:17;15.75;;;10.93;;
79631;SDS011;69108;41.120;16.874;2023-08-17T14:38:45;14.25;;;10.75;;
79631;SDS011;69108;41.120;16.874;2023-08-17T14:41:12;17.00;;;11.48;;
79631;SDS011;69108;41.120;16.874;2023-08-17T14:46:07;16.13;;;11.45;;
79631;SDS011;69108;41.120;16.874;2023-08-17T14:48:34;16.48;;;11.45;;
79631;SDS011;69108;41.120;16.874;2023-08-17T14:51:04;16.73;;;11.95;;
79631;SDS011;69108;41.120;16.874;2023-08-17T14:53:31;20.52;;;11.73;;
79631;SDS011;69108;41.120;16.874;2023-08-17T14:58:25;15.88;;;11.63;;
79631;SDS011;69108;41.120;16.874;2023-08-17T15:00:52;18.02;;;11.85;;
79631;SDS011;69108;41.120;16.874;2023-08-17T15:03:21;15.07;;;10.80;;
79631;SDS011;69108;41.120;16.874;2023-08-17T15:05:50;16.58;;;11.23;;
79631;SDS011;69108;41.120;16.874;2023-08-17T15:08:17;14.40;;;10.82;;
79631;SDS011;69108;41.120;16.874;2023-08-17T15:10:45;12.57;;;10.23;;
79631;SDS011;69108;41.120;16.874;2023-08-17T15:13:12;12.32;;;9.65;;
79631;SDS011;69108;41.120;16.874;2023-08-17T15:15:40;14.32;;;9.80;;
79631;SDS011;69108;41.120;16.874;2023-08-17T15:18:08;21.08;;;8.75;;